createdAt,value
2022-08-17T00:00:42.640Z,100505.06
2022-08-17T00:03:00.967Z,100495.16
2022-08-17T00:05:05.015Z,100493.28
2022-08-17T00:07:06.559Z,100506.66
2022-08-17T00:09:08.225Z,100477.25
2022-08-17T00:11:13.366Z,100485.22
2022-08-17T00:13:17.969Z,100503.59
2022-08-17T00:15:23.016Z,100511.03
2022-08-17T00:17:24.611Z,100485.53
2022-08-17T00:19:27.687Z,100484.69
2022-08-17T00:22:01.382Z,100480.75
2022-08-17T00:23:51.059Z,100512.53
2022-08-17T00:25:53.176Z,100489.56
2022-08-17T00:27:54.838Z,100479.97
2022-08-17T00:29:59.651Z,100485.47
2022-08-17T00:32:01.693Z,100503.81
2022-08-17T00:34:23.237Z,100508.59
2022-08-17T00:36:26.297Z,100500.03
2022-08-17T00:38:29.072Z,100516.94
2022-08-17T00:40:44.191Z,100496.94
2022-08-17T00:42:48.004Z,100521.97
2022-08-17T00:44:49.753Z,100519.75
2022-08-17T00:46:51.310Z,100490.06
2022-08-17T00:48:52.961Z,100501.16
2022-08-17T00:51:00.348Z,100503.91
2022-08-17T00:53:04.272Z,100517.59
2022-08-17T00:55:07.325Z,100511.59
2022-08-17T00:57:13.412Z,100505.78
2022-08-17T00:59:19.255Z,100521.19
2022-08-17T01:01:22.164Z,100492.56
2022-08-17T01:03:25.951Z,100491.88
2022-08-17T01:05:30.791Z,100499.63
2022-08-17T01:07:34.311Z,100517.59
2022-08-17T01:09:41.642Z,100506.16
2022-08-17T01:11:44.410Z,100515.13
2022-08-17T01:13:46.007Z,100509.72
2022-08-17T01:15:53.329Z,100521.31
2022-08-17T01:17:54.883Z,100534.56
2022-08-17T01:19:56.626Z,100514.44
2022-08-17T01:22:03.034Z,100508.97
2022-08-17T01:24:06.905Z,100528.00
2022-08-17T01:26:08.859Z,100537.97
2022-08-17T01:28:10.397Z,100509.75
2022-08-17T01:30:57.215Z,100511.22
2022-08-17T01:32:53.880Z,100513.63
2022-08-17T01:34:55.940Z,100521.03
2022-08-17T01:36:57.722Z,100528.16
2022-08-17T01:38:59.328Z,100540.72
2022-08-17T01:41:07.321Z,100517.19
2022-08-17T01:43:13.290Z,100541.31
2022-08-17T01:45:19.091Z,100515.84
2022-08-17T01:47:20.694Z,100496.16
2022-08-17T01:49:22.501Z,100535.72
2022-08-17T01:51:25.592Z,100528.22
2022-08-17T01:53:32.330Z,100511.22
2022-08-17T01:55:39.339Z,100540.59
2022-08-17T01:57:42.746Z,100537.50
2022-08-17T01:59:44.549Z,100530.25
2022-08-17T02:01:47.389Z,100534.50
2022-08-17T02:03:53.401Z,100511.69
2022-08-17T02:06:01.990Z,100516.41
2022-08-17T02:08:04.479Z,100518.41
2022-08-17T02:10:19.793Z,100539.59
2022-08-17T02:12:39.077Z,100517.63
2022-08-17T02:14:42.552Z,100519.88
2022-08-17T02:16:44.389Z,100521.34
2022-08-17T02:18:46.364Z,100519.03
2022-08-17T02:20:47.991Z,100525.53
2022-08-17T02:22:50.610Z,100530.41
2022-08-17T02:25:00.952Z,100526.31
2022-08-17T02:27:03.804Z,100537.28
2022-08-17T02:29:05.384Z,100543.69
2022-08-17T02:31:10.615Z,100544.00
2022-08-17T02:33:12.210Z,100540.72
2022-08-17T02:35:13.838Z,100532.28
2022-08-17T02:37:20.991Z,100541.66
2022-08-17T02:39:22.534Z,100522.22
2022-08-17T02:41:24.172Z,100537.00
2022-08-17T02:43:26.322Z,100542.81
2022-08-17T02:45:27.894Z,100515.56
2022-08-17T02:47:30.935Z,100530.44
2022-08-17T02:49:32.473Z,100534.59
2022-08-17T02:51:34.363Z,100523.28
2022-08-17T02:53:36.329Z,100516.13
2022-08-17T02:55:40.297Z,100536.34
2022-08-17T02:57:41.854Z,100505.44
2022-08-17T02:59:48.793Z,100531.03
2022-08-17T03:01:51.034Z,100540.19
2022-08-17T03:03:54.044Z,100506.06
2022-08-17T03:05:55.797Z,100511.06
2022-08-17T03:07:57.660Z,100506.25
2022-08-17T03:09:59.245Z,100507.69
2022-08-17T03:12:05.250Z,100530.16
2022-08-17T03:14:06.836Z,100517.97
2022-08-17T03:16:08.549Z,100534.97
2022-08-17T03:18:11.533Z,100532.97
2022-08-17T03:20:29.224Z,100529.56
2022-08-17T03:22:38.464Z,100512.16
2022-08-17T03:24:40.249Z,100514.84
2022-08-17T03:26:41.824Z,100529.88
2022-08-17T03:28:43.427Z,100521.38
2022-08-17T03:30:45.091Z,100483.78
2022-08-17T03:32:49.372Z,100530.06
2022-08-17T03:34:51.248Z,100527.06
2022-08-17T03:36:54.281Z,100515.75
2022-08-17T03:38:55.866Z,100526.66
2022-08-17T03:40:59.878Z,100528.47
2022-08-17T03:43:06.306Z,100520.81
2022-08-17T03:45:15.058Z,100525.06
2022-08-17T03:47:17.110Z,100513.31
2022-08-17T03:49:18.683Z,100495.84
2022-08-17T03:51:22.637Z,100513.56
2022-08-17T03:53:25.539Z,100516.09
2022-08-17T03:55:35.732Z,100506.59
2022-08-17T03:57:38.100Z,100519.50
2022-08-17T03:59:40.233Z,100517.81
2022-08-17T04:01:43.934Z,100525.00
2022-08-17T04:03:45.531Z,100523.75
2022-08-17T04:05:47.079Z,100512.34
2022-08-17T04:07:51.594Z,100527.69
2022-08-17T04:09:54.750Z,100530.78
2022-08-17T04:11:56.290Z,100528.63
2022-08-17T04:14:02.482Z,100536.31
2022-08-17T04:16:04.758Z,100525.78
2022-08-17T04:18:07.521Z,100518.38
2022-08-17T04:20:10.700Z,100533.91
2022-08-17T04:22:12.276Z,100510.66
2022-08-17T04:24:34.012Z,100536.44
2022-08-17T04:26:52.822Z,100535.69
2022-08-17T04:28:56.560Z,100533.50
2022-08-17T04:30:58.847Z,100521.50
2022-08-17T04:33:06.444Z,100532.56
2022-08-17T04:35:09.175Z,100539.34
2022-08-17T04:37:10.726Z,100543.44
2022-08-17T04:39:12.301Z,100550.94
2022-08-17T04:41:15.021Z,100548.75
2022-08-17T04:43:20.439Z,100548.44
2022-08-17T04:45:22.045Z,100553.75
2022-08-17T04:47:23.968Z,100550.03
2022-08-17T04:49:25.611Z,100555.91
2022-08-17T04:51:29.181Z,100566.88
2022-08-17T04:53:30.772Z,100552.88
2022-08-17T04:55:32.419Z,100557.97
2022-08-17T04:57:37.685Z,100555.00
2022-08-17T04:59:43.507Z,100558.19
2022-08-17T05:01:47.214Z,100560.34
2022-08-17T05:03:48.918Z,100563.69
2022-08-17T05:05:50.556Z,100560.47
2022-08-17T05:07:52.336Z,100561.56
2022-08-17T05:09:54.005Z,100565.16
2022-08-17T05:11:56.267Z,100558.41
2022-08-17T05:13:59.143Z,100564.28
2022-08-17T05:16:03.962Z,100568.97
2022-08-17T05:18:06.599Z,100568.16
2022-08-17T05:20:09.326Z,100568.34
2022-08-17T05:22:10.877Z,100563.34
2022-08-17T05:24:38.173Z,100572.75
2022-08-17T05:26:34.021Z,100571.47
2022-08-17T05:28:38.092Z,100570.50
2022-08-17T05:30:41.307Z,100571.63
2022-08-17T05:32:53.068Z,100571.44
2022-08-17T05:34:55.983Z,100575.69
2022-08-17T05:36:59.767Z,100574.56
2022-08-17T05:39:01.322Z,100567.38
2022-08-17T05:41:05.693Z,100574.44
2022-08-17T05:43:10.144Z,100577.66
2022-08-17T05:45:11.973Z,100580.47
2022-08-17T05:47:13.652Z,100584.47
2022-08-17T05:49:18.844Z,100588.03
2022-08-17T05:51:50.226Z,100588.69
2022-08-17T05:54:01.926Z,100594.28
2022-08-17T05:56:29.440Z,100598.91
2022-08-17T05:58:42.005Z,100597.53
2022-08-17T06:00:56.120Z,100600.94
2022-08-17T06:03:16.145Z,100595.00
2022-08-17T06:05:42.780Z,100593.25
2022-08-17T06:07:49.031Z,100598.13
2022-08-17T06:09:59.600Z,100598.13
2022-08-17T06:12:19.795Z,100605.66
2022-08-17T06:14:44.808Z,100598.91
2022-08-17T06:16:50.813Z,100603.06
2022-08-17T06:18:57.227Z,100605.31
2022-08-17T06:21:03.203Z,100602.78
2022-08-17T06:23:08.296Z,100599.09
2022-08-17T06:25:15.466Z,100599.28
2022-08-17T06:27:25.185Z,100601.81
2022-08-17T06:29:37.380Z,100600.97
2022-08-17T06:31:40.484Z,100601.91
2022-08-17T06:33:42.083Z,100608.28
2022-08-17T06:35:55.826Z,100611.59
2022-08-17T06:38:09.383Z,100614.06
2022-08-17T06:40:50.906Z,100609.44
2022-08-17T06:43:06.864Z,100609.25
2022-08-17T06:45:13.901Z,100607.38
2022-08-17T06:47:28.188Z,100608.13
2022-08-17T06:49:38.804Z,100609.63
2022-08-17T06:51:43.390Z,100609.44
2022-08-17T06:53:51.264Z,100610.69
2022-08-17T06:55:58.179Z,100608.88
2022-08-17T06:58:05.868Z,100598.59
2022-08-17T07:00:21.679Z,100611.63
2022-08-17T07:02:51.165Z,100610.22
2022-08-17T07:04:54.785Z,100617.25
2022-08-17T07:07:02.113Z,100607.19
2022-08-17T07:09:10.013Z,100610.03
2022-08-17T07:11:14.605Z,100611.38
2022-08-17T07:13:26.549Z,100605.22
2022-08-17T07:15:38.176Z,100607.78
2022-08-17T07:17:48.082Z,100606.69
2022-08-17T07:20:04.525Z,100601.91
2022-08-17T07:22:20.582Z,100614.56
2022-08-17T07:24:35.173Z,100602.75
2022-08-17T07:26:36.732Z,100600.78
2022-08-17T07:28:38.806Z,100605.03
2022-08-17T07:30:45.702Z,100607.13
2022-08-17T07:32:52.493Z,100601.22
2022-08-17T07:35:10.793Z,100601.78
2022-08-17T07:37:18.622Z,100606.47
2022-08-17T07:39:28.357Z,100611.53
2022-08-17T07:41:57.405Z,100606.94
2022-08-17T07:43:57.106Z,100615.06
2022-08-17T07:46:04.569Z,100608.97
2022-08-17T07:48:06.662Z,100618.91
2022-08-17T07:50:26.050Z,100621.88
2022-08-17T07:52:50.398Z,100618.53
2022-08-17T07:54:53.405Z,100616.03
2022-08-17T07:56:57.019Z,100602.09
2022-08-17T07:59:10.892Z,100616.03
2022-08-17T08:01:15.377Z,100615.66
2022-08-17T08:03:23.702Z,100608.41
2022-08-17T08:05:48.846Z,100617.09
2022-08-17T08:07:55.722Z,100608.91
2022-08-17T08:10:08.039Z,100614.81
2022-08-17T08:12:32.672Z,100611.44
2022-08-17T08:14:35.140Z,100616.09
2022-08-17T08:16:36.758Z,100616.34
2022-08-17T08:18:54.299Z,100618.88
2022-08-17T08:21:04.608Z,100611.69
2022-08-17T08:23:14.035Z,100623.72
2022-08-17T08:25:25.332Z,100617.84
2022-08-17T08:27:40.478Z,100626.25
2022-08-17T08:29:52.767Z,100625.84
2022-08-17T08:32:03.081Z,100619.94
2022-08-17T08:34:45.012Z,100619.94
2022-08-17T08:36:56.980Z,100623.50
2022-08-17T08:39:31.076Z,100614.25
2022-08-17T08:41:42.081Z,100616.97
2022-08-17T08:43:53.010Z,100610.22
2022-08-17T08:46:00.895Z,100618.69
2022-08-17T08:48:52.750Z,100613.59
2022-08-17T08:50:46.704Z,100608.72
2022-08-17T08:53:01.169Z,100608.88
2022-08-17T08:55:10.836Z,100611.84
2022-08-17T08:57:27.998Z,100611.63
2022-08-17T08:59:42.102Z,100610.16
2022-08-17T09:01:59.607Z,100610.75
2022-08-17T09:04:25.088Z,100612.50
2022-08-17T09:06:42.721Z,100622.75
2022-08-17T09:09:01.731Z,100622.91
2022-08-17T09:11:06.257Z,100621.41
2022-08-17T09:13:19.722Z,100615.03
2022-08-17T09:15:25.779Z,100607.41
2022-08-17T09:17:36.683Z,100611.78
2022-08-17T09:19:47.899Z,100610.81
2022-08-17T09:21:53.732Z,100611.47
2022-08-17T09:24:06.104Z,100604.41
2022-08-17T09:26:16.982Z,100605.25
2022-08-17T09:28:27.721Z,100602.50
2022-08-17T09:30:37.890Z,100611.38
2022-08-17T09:32:42.995Z,100613.78
2022-08-17T09:34:49.822Z,100611.97
2022-08-17T09:37:00.014Z,100612.25
2022-08-17T09:39:06.110Z,100599.91
2022-08-17T09:41:15.698Z,100604.72
2022-08-17T09:43:27.500Z,100601.00
2022-08-17T09:45:34.497Z,100611.97
2022-08-17T09:47:41.109Z,100620.13
2022-08-17T09:49:49.302Z,100616.16
2022-08-17T09:51:55.299Z,100619.72
2022-08-17T09:54:14.733Z,100608.66
2022-08-17T09:56:31.994Z,100602.75
2022-08-17T09:58:45.344Z,100602.38
2022-08-17T10:00:55.046Z,100594.59
2022-08-17T10:03:43.663Z,100605.78
2022-08-17T10:05:50.262Z,100603.22
2022-08-17T10:08:05.963Z,100600.50
2022-08-17T10:10:15.518Z,100587.38
2022-08-17T10:12:30.089Z,100596.41
2022-08-17T10:14:44.103Z,100571.88
2022-08-17T10:16:54.554Z,100590.31
2022-08-17T10:19:14.889Z,100587.09
2022-08-17T10:21:18.792Z,100581.59
2022-08-17T10:23:25.857Z,100580.38
2022-08-17T10:25:42.574Z,100586.38
2022-08-17T10:27:53.088Z,100595.66
2022-08-17T10:29:59.569Z,100587.16
2022-08-17T10:32:06.448Z,100590.50
2022-08-17T10:34:40.970Z,100586.53
2022-08-17T10:36:53.528Z,100591.13
2022-08-17T10:39:07.433Z,100592.00
2022-08-17T10:41:22.848Z,100590.38
2022-08-17T10:43:37.598Z,100582.06
2022-08-17T10:46:10.531Z,100588.09
2022-08-17T10:48:32.432Z,100601.16
2022-08-17T10:50:48.650Z,100604.72
2022-08-17T10:52:50.413Z,100596.91
2022-08-17T10:55:13.600Z,100599.16
2022-08-17T10:57:39.552Z,100593.16
2022-08-17T10:59:50.675Z,100586.44
2022-08-17T11:02:11.157Z,100588.38
2022-08-17T11:04:27.297Z,100579.59
2022-08-17T11:06:42.207Z,100573.78
2022-08-17T11:09:10.194Z,100574.97
2022-08-17T11:11:39.840Z,100565.94
2022-08-17T11:13:51.670Z,100570.47
2022-08-17T11:16:08.250Z,100561.44
2022-08-17T11:18:29.011Z,100573.06
2022-08-17T11:21:00.623Z,100563.97
2022-08-17T11:23:34.791Z,100567.25
2022-08-17T11:25:39.273Z,100562.19
2022-08-17T11:27:42.740Z,100552.38
2022-08-17T11:29:56.746Z,100557.53
2022-08-17T11:32:07.452Z,100565.56
2022-08-17T11:34:18.634Z,100561.97
2022-08-17T11:36:32.620Z,100556.59
2022-08-17T11:38:44.893Z,100559.13
2022-08-17T11:41:15.899Z,100560.03
2022-08-17T11:43:42.910Z,100559.34
2022-08-17T11:45:58.527Z,100556.28
2022-08-17T11:48:27.214Z,100548.34
2022-08-17T11:50:43.882Z,100544.66
2022-08-17T11:52:47.889Z,100544.91
2022-08-17T11:54:49.566Z,100550.78
2022-08-17T11:56:51.401Z,100546.47
2022-08-17T11:58:52.978Z,100546.81
2022-08-17T12:00:59.527Z,100546.81
2022-08-17T12:03:22.867Z,100546.56
2022-08-17T12:05:33.776Z,100544.00
2022-08-17T12:07:42.200Z,100540.09
2022-08-17T12:09:48.565Z,100535.06
2022-08-17T12:12:12.626Z,100544.72
2022-08-17T12:14:24.275Z,100548.16
2022-08-17T12:16:31.033Z,100551.97
2022-08-17T12:18:33.459Z,100537.66
2022-08-17T12:20:38.593Z,100543.56
2022-08-17T12:22:49.687Z,100547.31
2022-08-17T12:24:57.996Z,100543.03
2022-08-17T12:27:01.273Z,100547.88
2022-08-17T12:29:06.208Z,100543.28
2022-08-17T12:31:15.990Z,100550.56
2022-08-17T12:33:25.460Z,100547.94
2022-08-17T12:35:32.865Z,100549.47
2022-08-17T12:37:44.450Z,100541.56
2022-08-17T12:39:55.933Z,100542.44
2022-08-17T12:42:02.353Z,100545.84
2022-08-17T12:44:06.887Z,100539.53
2022-08-17T12:46:17.409Z,100532.84
2022-08-17T12:48:24.649Z,100529.78
2022-08-17T12:50:28.517Z,100527.28
2022-08-17T12:52:32.936Z,100541.13
2022-08-17T12:54:46.489Z,100524.69
2022-08-17T12:56:47.820Z,100521.91
2022-08-17T12:58:51.887Z,100516.66
2022-08-17T13:01:00.010Z,100508.56
2022-08-17T13:03:04.143Z,100505.50
2022-08-17T13:05:08.148Z,100505.31
2022-08-17T13:07:09.712Z,100509.13
2022-08-17T13:09:13.808Z,100503.81
2022-08-17T13:11:21.748Z,100508.44
2022-08-17T13:13:25.590Z,100505.66
2022-08-17T13:15:30.734Z,100509.88
2022-08-17T13:17:35.521Z,100503.69
2022-08-17T13:19:48.217Z,100504.94
2022-08-17T13:21:52.319Z,100500.09
2022-08-17T13:23:57.194Z,100504.06
2022-08-17T13:26:03.174Z,100505.22
2022-08-17T13:28:06.129Z,100505.22
2022-08-17T13:30:11.944Z,100507.72
2022-08-17T13:32:19.808Z,100505.69
2022-08-17T13:35:13.124Z,100504.94
2022-08-17T13:37:18.343Z,100502.16
2022-08-17T13:39:25.016Z,100501.84
2022-08-17T13:41:30.654Z,100504.06
2022-08-17T13:43:42.256Z,100503.41
2022-08-17T13:45:50.743Z,100502.88
2022-08-17T13:48:04.875Z,100498.22
2022-08-17T13:50:18.750Z,100500.03
2022-08-17T13:52:37.925Z,100503.19
2022-08-17T13:54:40.507Z,100504.16
2022-08-17T13:56:53.272Z,100502.78
2022-08-17T13:58:59.146Z,100506.00
2022-08-17T14:01:27.942Z,100504.09
2022-08-17T14:03:29.529Z,100494.69
2022-08-17T14:05:31.827Z,100497.16
2022-08-17T14:07:36.687Z,100489.78
2022-08-17T14:09:42.972Z,100504.63
2022-08-17T14:11:45.641Z,100498.94
2022-08-17T14:13:47.550Z,100488.72
2022-08-17T14:15:55.173Z,100490.72
2022-08-17T14:17:58.370Z,100485.97
2022-08-17T14:19:59.905Z,100488.41
2022-08-17T14:22:02.744Z,100497.91
2022-08-17T14:24:04.962Z,100491.28
2022-08-17T14:26:06.791Z,100495.44
2022-08-17T14:28:08.311Z,100498.97
2022-08-17T14:30:10.872Z,100494.31
2022-08-17T14:32:18.334Z,100488.88
2022-08-17T14:34:20.781Z,100486.84
2022-08-17T14:36:22.448Z,100483.63
2022-08-17T14:38:24.023Z,100483.53
2022-08-17T14:40:26.265Z,100484.50
2022-08-17T14:42:32.010Z,100487.34
2022-08-17T14:44:33.607Z,100485.97
2022-08-17T14:46:35.300Z,100484.22
2022-08-17T14:48:38.353Z,100489.66
2022-08-17T14:50:43.169Z,100475.66
2022-08-17T14:52:45.769Z,100479.84
2022-08-17T14:54:47.382Z,100486.28
2022-08-17T14:56:48.941Z,100484.56
2022-08-17T14:59:00.884Z,100484.66
2022-08-17T15:01:05.232Z,100476.16
2022-08-17T15:03:07.888Z,100481.94
2022-08-17T15:05:11.373Z,100476.38
2022-08-17T15:07:13.583Z,100478.53
2022-08-17T15:09:15.803Z,100479.19
2022-08-17T15:11:18.416Z,100479.88
2022-08-17T15:13:22.252Z,100481.75
2022-08-17T15:15:24.085Z,100478.00
2022-08-17T15:17:25.662Z,100478.94
2022-08-17T15:19:45.566Z,100474.13
2022-08-17T15:21:48.480Z,100474.19
2022-08-17T15:23:50.023Z,100473.25
2022-08-17T15:25:54.047Z,100472.34
2022-08-17T15:27:55.637Z,100484.97
2022-08-17T15:29:57.469Z,100477.19
2022-08-17T15:32:00.820Z,100476.50
2022-08-17T15:34:02.881Z,100474.75
2022-08-17T15:36:06.947Z,100474.47
2022-08-17T15:38:12.315Z,100480.38
2022-08-17T15:40:14.094Z,100471.97
2022-08-17T15:42:17.919Z,100465.47
2022-08-17T15:44:19.476Z,100468.34
2022-08-17T15:46:22.762Z,100464.53
2022-08-17T15:48:24.555Z,100456.56
2022-08-17T15:50:27.071Z,100453.75
2022-08-17T15:52:28.962Z,100459.41
2022-08-17T15:54:31.896Z,100463.06
2022-08-17T15:56:36.578Z,100459.75
2022-08-17T15:58:38.125Z,100458.50
2022-08-17T16:00:53.124Z,100462.25
2022-08-17T16:03:45.507Z,100453.81
2022-08-17T16:05:24.080Z,100457.56
2022-08-17T16:07:26.957Z,100460.69
2022-08-17T16:09:28.592Z,100449.59
2022-08-17T16:11:34.416Z,100455.22
2022-08-17T16:13:36.250Z,100450.41
2022-08-17T16:15:37.946Z,100455.91
2022-08-17T16:17:40.772Z,100449.66
2022-08-17T16:19:42.330Z,100451.88
2022-08-17T16:21:43.898Z,100453.91
2022-08-17T16:23:45.750Z,100453.75
2022-08-17T16:25:53.506Z,100445.16
2022-08-17T16:27:57.494Z,100458.13
2022-08-17T16:29:59.116Z,100446.41
2022-08-17T16:32:08.508Z,100434.31
2022-08-17T16:34:16.913Z,100439.91
2022-08-17T16:36:20.290Z,100441.59
2022-08-17T16:38:21.828Z,100440.50
2022-08-17T16:40:24.653Z,100444.16
2022-08-17T16:42:30.402Z,100442.63
2022-08-17T16:44:33.466Z,100444.94
2022-08-17T16:46:34.989Z,100443.47
2022-08-17T16:48:39.385Z,100431.53
2022-08-17T16:50:41.091Z,100443.47
2022-08-17T16:52:42.617Z,100437.13
2022-08-17T16:54:44.526Z,100443.94
2022-08-17T16:56:46.140Z,100441.56
2022-08-17T16:58:47.687Z,100440.94
2022-08-17T17:00:53.935Z,100441.25
2022-08-17T17:02:55.694Z,100448.72
2022-08-17T17:05:03.578Z,100436.53
2022-08-17T17:07:19.699Z,100440.75
2022-08-17T17:09:28.323Z,100433.84
2022-08-17T17:11:33.009Z,100440.09
2022-08-17T17:13:41.629Z,100432.31
2022-08-17T17:15:51.741Z,100436.34
2022-08-17T17:18:06.052Z,100437.47
2022-08-17T17:20:13.977Z,100427.97
2022-08-17T17:22:22.679Z,100441.53
2022-08-17T17:24:31.924Z,100437.06
2022-08-17T17:26:47.628Z,100440.28
2022-08-17T17:29:02.439Z,100440.31
2022-08-17T17:31:14.042Z,100440.38
2022-08-17T17:33:19.385Z,100436.22
2022-08-17T17:35:24.998Z,100439.69
2022-08-17T17:37:32.065Z,100447.75
2022-08-17T17:39:38.260Z,100449.03
2022-08-17T17:41:46.688Z,100447.19
2022-08-17T17:43:51.726Z,100441.50
2022-08-17T17:45:57.443Z,100445.75
2022-08-17T17:48:09.140Z,100443.22
2022-08-17T17:50:12.824Z,100436.94
2022-08-17T17:52:23.369Z,100432.53
2022-08-17T17:54:38.241Z,100440.19
2022-08-17T17:56:58.013Z,100437.88
2022-08-17T17:59:12.729Z,100439.59
2022-08-17T18:01:39.128Z,100446.34
2022-08-17T18:03:58.377Z,100450.16
2022-08-17T18:06:20.049Z,100441.75
2022-08-17T18:08:37.232Z,100454.00
2022-08-17T18:10:50.190Z,100445.97
2022-08-17T18:12:58.153Z,100442.19
2022-08-17T18:15:10.969Z,100446.44
2022-08-17T18:17:12.523Z,100449.81
2022-08-17T18:19:18.827Z,100446.44
2022-08-17T18:21:24.644Z,100450.25
2022-08-17T18:23:28.644Z,100455.50
2022-08-17T18:25:42.480Z,100451.50
2022-08-17T18:27:50.232Z,100442.63
2022-08-17T18:29:54.254Z,100453.16
2022-08-17T18:32:22.871Z,100456.94
2022-08-17T18:34:46.433Z,100456.03
2022-08-17T18:36:50.318Z,100459.81
2022-08-17T18:39:10.854Z,100464.00
2022-08-17T18:41:20.981Z,100467.34
2022-08-17T18:43:28.171Z,100466.28
2022-08-17T18:45:47.952Z,100469.00
2022-08-17T18:47:53.650Z,100465.19
2022-08-17T18:49:57.187Z,100465.56
2022-08-17T18:52:14.604Z,100467.25
2022-08-17T18:54:21.549Z,100470.13
2022-08-17T18:56:28.280Z,100473.03
2022-08-17T18:58:32.793Z,100468.59
2022-08-17T19:00:38.122Z,100471.75
2022-08-17T19:02:51.578Z,100468.13
2022-08-17T19:05:00.640Z,100478.84
2022-08-17T19:07:06.693Z,100475.47
2022-08-17T19:09:30.567Z,100475.88
2022-08-17T19:11:34.480Z,100479.41
2022-08-17T19:13:40.675Z,100466.53
2022-08-17T19:16:13.749Z,100466.28
2022-08-17T19:18:16.705Z,100468.13
2022-08-17T19:20:22.467Z,100467.69
2022-08-17T19:22:30.961Z,100463.44
2022-08-17T19:24:47.627Z,100465.94
2022-08-17T19:26:57.557Z,100461.22
2022-08-17T19:29:06.384Z,100458.44
2022-08-17T19:31:14.276Z,100460.13
2022-08-17T19:33:16.098Z,100467.88
2022-08-17T19:35:24.448Z,100471.66
2022-08-17T19:37:38.930Z,100467.00
2022-08-17T19:39:55.264Z,100464.66
2022-08-17T19:42:03.221Z,100459.19
2022-08-17T19:44:17.661Z,100468.19
2022-08-17T19:46:29.691Z,100472.34
2022-08-17T19:48:41.525Z,100467.28
2022-08-17T19:50:49.085Z,100463.03
2022-08-17T19:52:57.011Z,100464.16
2022-08-17T19:55:05.753Z,100462.44
2022-08-17T19:57:18.247Z,100459.31
2022-08-17T19:59:27.760Z,100462.19
2022-08-17T20:01:46.301Z,100464.44
2022-08-17T20:03:55.945Z,100452.16
2022-08-17T20:06:12.679Z,100455.44
2022-08-17T20:08:19.261Z,100453.22
2022-08-17T20:10:30.448Z,100450.75
2022-08-17T20:12:36.723Z,100457.81
2022-08-17T20:14:53.478Z,100456.34
2022-08-17T20:17:01.874Z,100456.97
2022-08-17T20:19:07.856Z,100457.31
2022-08-17T20:21:20.441Z,100450.16
2022-08-17T20:23:49.286Z,100453.09
2022-08-17T20:25:59.203Z,100454.91
2022-08-17T20:28:06.751Z,100453.88
2022-08-17T20:30:11.503Z,100455.75
2022-08-17T20:32:24.209Z,100452.91
2022-08-17T20:34:37.395Z,100448.75
2022-08-17T20:36:58.004Z,100444.06
2022-08-17T20:38:59.989Z,100452.91
2022-08-17T20:41:14.585Z,100452.00
2022-08-17T20:43:45.288Z,100454.94
2022-08-17T20:46:04.408Z,100459.53
2022-08-17T20:50:40.300Z,100456.53
2022-08-17T20:52:47.008Z,100464.84
2022-08-17T20:54:50.766Z,100467.59
2022-08-17T20:56:56.694Z,100451.78
2022-08-17T20:58:58.334Z,100461.84
2022-08-17T21:01:11.721Z,100464.97
2022-08-17T21:03:51.020Z,100463.16
2022-08-17T21:05:57.422Z,100467.13
2022-08-17T21:08:14.183Z,100457.44
2022-08-17T21:10:17.143Z,100463.75
2022-08-17T21:12:42.522Z,100456.22
2022-08-17T21:14:59.859Z,100465.44
2022-08-17T21:17:41.968Z,100466.47
2022-08-17T21:20:12.849Z,100470.91
2022-08-17T21:22:28.720Z,100467.50
2022-08-17T21:24:45.191Z,100463.66
2022-08-17T21:26:57.029Z,100459.81
2022-08-17T21:29:30.860Z,100472.44
2022-08-17T21:31:39.886Z,100477.13
2022-08-17T21:34:19.851Z,100480.22
2022-08-17T21:36:25.830Z,100478.72
2022-08-17T21:38:36.556Z,100469.81
2022-08-17T21:40:40.237Z,100477.31
2022-08-17T21:42:46.477Z,100474.22
2022-08-17T21:44:50.591Z,100475.91
2022-08-17T21:46:53.922Z,100473.09
2022-08-17T21:49:08.928Z,100475.25
2022-08-17T21:51:19.406Z,100479.41
2022-08-17T21:53:32.248Z,100483.81
2022-08-17T21:55:36.357Z,100483.50
2022-08-17T21:57:41.437Z,100471.41
2022-08-17T21:59:57.143Z,100478.06
2022-08-17T22:02:01.342Z,100483.50
2022-08-17T22:04:06.028Z,100472.97
2022-08-17T22:06:23.268Z,100485.19
2022-08-17T22:08:26.407Z,100484.25
2022-08-17T22:10:34.849Z,100469.97
2022-08-17T22:12:36.410Z,100484.63
2022-08-17T22:14:53.243Z,100485.41
2022-08-17T22:17:07.003Z,100477.03
2022-08-17T22:19:09.173Z,100486.53
2022-08-17T22:21:11.034Z,100484.44
2022-08-17T22:23:15.131Z,100475.63
2022-08-17T22:25:22.247Z,100484.44
2022-08-17T22:27:49.724Z,100490.66
2022-08-17T22:29:57.268Z,100493.56
2022-08-17T22:32:00.007Z,100500.53
2022-08-17T22:34:12.440Z,100491.75
2022-08-17T22:36:22.979Z,100495.41
2022-08-17T22:38:32.021Z,100491.34
2022-08-17T22:40:35.119Z,100490.78
2022-08-17T22:42:44.721Z,100489.84
2022-08-17T22:44:49.786Z,100490.22
2022-08-17T22:46:58.537Z,100489.84
2022-08-17T22:49:00.251Z,100486.47
2022-08-17T22:51:16.549Z,100493.97
2022-08-17T22:53:23.763Z,100501.50
2022-08-17T22:55:29.725Z,100490.94
2022-08-17T22:57:34.271Z,100498.94
2022-08-17T22:59:44.898Z,100498.09
2022-08-17T23:02:15.862Z,100486.72
2022-08-17T23:04:31.740Z,100491.31
2022-08-17T23:06:36.054Z,100487.94
2022-08-17T23:08:38.875Z,100490.38
2022-08-17T23:10:41.607Z,100496.53
2022-08-17T23:12:43.164Z,100496.53
2022-08-17T23:14:44.751Z,100491.06
2022-08-17T23:16:47.101Z,100484.47
2022-08-17T23:18:53.076Z,100489.75
2022-08-17T23:20:54.639Z,100487.66
2022-08-17T23:22:56.436Z,100486.28
2022-08-17T23:24:58.196Z,100483.25
2022-08-17T23:26:59.782Z,100485.25
2022-08-17T23:29:01.377Z,100486.47
2022-08-17T23:31:05.290Z,100481.56
2022-08-17T23:33:08.879Z,100486.16
2022-08-17T23:35:11.809Z,100485.31
2022-08-17T23:37:13.843Z,100482.59
2022-08-17T23:39:15.376Z,100478.66
2022-08-17T23:41:30.336Z,100486.34
2022-08-17T23:43:31.899Z,100481.75
2022-08-17T23:45:33.402Z,100484.66
2022-08-17T23:47:35.015Z,100477.03
2022-08-17T23:49:37.532Z,100474.13
2022-08-17T23:51:41.124Z,100472.44
2022-08-17T23:53:45.510Z,100476.19
2022-08-17T23:55:47.049Z,100477.41
2022-08-17T23:58:08.438Z,100476.84
